Latest Weather Observations for Lucas Heights

IDN60801

Issued at 8:32 pm EDT Friday 20 January 2017 (issued every 30 minutes, with the page automatically refreshed every 10 minutes)

About weather observations | Map of weather stations | Latest weather observations for NSW | Other Formats
Station Details ID: 066023 Name: LUCAS HEIGHTS AWS Lat: -34.05 Lon: 150.98 Height: 140.0 m
Data from the previous 72 hours. | See also: Recent months for locations in New South Wales
Date/Time
EDT
Temp
°C
App
Temp
°C
Dew
Point
°C
Rel
Hum
%
Delta-T
°C
Wind Press
QNH
hPa
Press
MSL
hPa
Rain since
9am
mm
Dir  Spd
km/h
Gust
km/h
Spd
kts
Gust
kts
20/08:15pm 25.7 28.8 24.1 91 1.1 W 15 20 8 11 994.6 - 2.0
20/08:00pm 26.0 29.6 24.4 91 1.1 W 13 19 7 10 994.5 - 2.0
20/07:45pm 26.1 30.2 24.6 91 1.0 W 11 17 6 9 994.4 - 2.0
20/07:30pm 25.9 30.3 24.4 91 1.0 SW 9 15 5 8 994.4 - 2.0
20/07:15pm 26.1 29.7 24.4 90 1.2 SW 13 20 7 11 994.2 - 2.0
20/07:00pm 26.3 29.7 24.0 87 1.6 SSW 13 17 7 9 993.6 - 2.0
20/06:45pm 27.9 31.6 23.9 79 2.8 SW 11 17 6 9 993.2 - 2.0
20/06:30pm 28.8 32.1 23.9 75 3.4 NW 13 20 7 11 992.7 - 1.6
20/06:15pm 29.2 32.6 24.0 73 3.6 NNW 13 24 7 13 992.2 - 0.0
20/06:00pm 29.5 33.3 24.1 72 3.8 NNW 11 19 6 10 992.1 - 0.0
20/05:45pm 29.8 34.2 24.5 73 3.7 NW 9 17 5 9 992.4 - 0.0
20/05:30pm 28.7 33.5 24.5 78 2.9 NW 7 11 4 6 992.5 - 0.0
20/05:15pm 27.8 32.3 23.9 79 2.7 WNW 7 11 4 6 992.9 - 0.0
20/05:00pm 28.0 32.1 23.9 78 2.8 WNW 9 15 5 8 993.0 - 0.0
20/04:45pm 27.9 31.5 23.8 78 2.8 NW 11 22 6 12 992.7 - 0.0
20/04:30pm 27.8 30.9 23.6 78 2.9 NW 13 17 7 9 992.6 - 0.0
20/04:15pm 28.0 31.1 23.6 77 3.0 NW 13 20 7 11 992.8 - 0.0
20/04:00pm 28.1 30.9 23.7 77 3.0 NNW 15 22 8 12 993.0 - 0.0
20/03:45pm 28.3 31.1 23.7 76 3.2 NW 15 28 8 15 993.5 - 0.0
20/03:30pm 28.3 30.5 23.9 77 3.1 NW 19 28 10 15 993.8 - 0.0
20/03:15pm 27.4 29.7 23.5 79 2.7 NW 17 26 9 14 994.2 - 0.0
20/03:00pm 26.9 28.5 23.2 80 2.5 NW 20 32 11 17 994.3 - 0.0
20/02:45pm 26.6 28.2 23.3 82 2.3 NNW 20 32 11 17 994.5 - 0.0
20/02:30pm 25.9 27.3 22.9 83 2.0 NNW 20 33 11 18 994.7 - 0.0
20/02:15pm 25.2 26.4 22.5 85 1.8 NNW 20 32 11 17 994.9 - 0.0
20/02:00pm 24.3 26.0 22.4 89 1.3 NNW 17 26 9 14 995.1 - 0.0
20/01:45pm 23.1 24.0 21.6 91 1.0 NNW 19 30 10 16 995.6 - 0.0
20/01:30pm 22.6 24.1 21.3 92 0.9 N 15 26 8 14 995.9 - 0.0
20/01:15pm 21.6 22.6 20.3 92 0.8 NNW 15 24 8 13 996.5 - 0.0
20/01:00pm 21.0 22.1 19.7 92 0.8 NNW 13 20 7 11 997.0 - 0.0
20/10:00am 22.4 22.2 17.5 74 3.0 N 15 28 8 15 999.2 - 0.0
20/09:45am 23.2 22.3 17.8 71 3.4 NNW 19 30 10 16 999.6 - 0.0
20/09:30am 22.5 22.8 17.8 75 2.9 N 13 22 7 12 1000.2 - 0.0
20/09:15am 21.8 21.9 17.4 76 2.7 N 13 20 7 11 1000.5 - 0.0
20/09:00am 21.5 21.5 17.3 77 2.6 NNW 13 20 7 11 1000.8 - 0.0
20/08:45am 21.4 21.0 17.1 76 2.6 NNW 15 24 8 13 1001.1 - 0.0
20/08:30am 20.7 20.2 16.8 78 2.4 N 15 24 8 13 1001.4 - 0.0
20/08:15am 20.8 19.5 16.8 78 2.4 N 19 28 10 15 1001.8 - 0.0
20/08:00am 21.0 19.7 16.9 77 2.5 NNW 19 30 10 16 1002.1 - 0.0
20/07:45am 20.7 20.3 17.2 80 2.2 NNW 15 24 8 13 1002.3 - 0.0
20/07:30am 19.9 19.4 16.9 83 1.8 NNW 15 24 8 13 1002.7 - 0.0
20/07:15am 19.7 19.5 16.7 83 1.8 NNW 13 20 7 11 1002.7 - 0.0
20/07:00am 19.7 19.1 16.7 83 1.8 NNW 15 22 8 12 1002.9 - 0.0
20/06:45am 19.7 19.2 16.8 83 1.8 NW 15 20 8 11 1003.1 - 0.0
20/06:30am 19.7 19.6 16.9 84 1.7 NNW 13 20 7 11 1002.8 - 0.0
20/06:15am 19.6 19.8 16.8 84 1.7 N 11 20 6 11 1002.8 - 0.0
20/06:00am 19.7 20.0 16.9 84 1.7 NNW 11 17 6 9 1003.4 - 0.0
20/05:45am 19.7 20.0 16.9 84 1.7 NW 11 17 6 9 1003.9 - 0.0
20/05:30am 19.7 20.0 17.0 84 1.6 NW 11 13 6 7 1004.0 - 0.0
20/05:15am 19.7 20.4 17.1 85 1.6 NW 9 13 5 7 1004.2 - 0.0
20/05:00am 19.5 20.2 17.1 86 1.5 NW 9 11 5 6 1004.5 - 0.0
20/04:45am 19.3 20.4 17.0 86 1.4 NNW 7 11 4 6 1004.6 - 0.0
20/04:30am 19.4 20.5 17.0 86 1.5 NNW 7 11 4 6 1004.9 - 0.0
20/04:15am 19.6 20.7 17.0 85 1.6 NNW 7 11 4 6 1005.4 - 0.0
20/04:00am 19.6 20.4 17.2 86 1.5 NNW 9 11 5 6 1005.7 - 0.0
20/03:45am 19.5 20.3 17.2 86 1.4 NNW 9 13 5 7 1005.9 - 0.0
20/03:30am 19.4 20.2 17.2 87 1.3 N 9 15 5 8 1005.9 - 0.0
20/03:15am 19.4 20.2 17.2 87 1.3 N 9 13 5 7 1006.3 - 0.0
20/03:00am 19.4 20.5 17.2 87 1.3 N 7 11 4 6 1006.7 - 0.0
20/02:45am 19.5 20.6 17.2 86 1.4 N 7 11 4 6 1007.3 - 0.0
20/02:30am 19.5 20.6 17.2 86 1.4 N 7 11 4 6 1007.6 - 0.0
20/02:15am 19.5 20.6 17.1 86 1.5 N 7 15 4 8 1007.8 - 0.0
20/02:00am 19.5 20.2 17.1 86 1.5 NNE 9 15 5 8 1008.1 - 0.0
20/01:45am 19.5 19.8 17.0 85 1.5 NNE 11 17 6 9 1008.6 - 0.0
20/01:30am 19.5 19.8 16.9 85 1.6 N 11 20 6 11 1008.8 - 0.0
20/01:15am 19.4 19.5 16.6 84 1.7 NNE 11 15 6 8 1009.3 - 0.0
20/01:00am 19.6 20.2 16.7 83 1.8 N 9 17 5 9 1009.6 - 0.0
20/12:45am 19.7 19.1 16.6 82 1.9 NNE 15 26 8 14 1009.7 - 0.0
20/12:30am 19.8 18.3 16.4 81 2.1 NNE 19 26 10 14 1009.8 - 0.0
20/12:15am 20.0 18.5 16.3 79 2.2 NNE 19 30 10 16 1010.1 - 0.0
20/12:00am 20.2 19.0 16.1 77 2.5 N 17 26 9 14 1010.2 - 0.0
 
Date/Time
EDT
Temp
°C
App
Temp
°C
Dew
Point
°C
Rel
Hum
%
Delta-T
°C
Wind Press
QNH
hPa
Press
MSL
hPa
Rain since
9am
mm
Dir  Spd
km/h
Gust
km/h
Spd
kts
Gust
kts
19/11:45pm 20.3 19.5 16.0 76 2.6 N 15 24 8 13 1010.3 - 0.0
19/11:30pm 20.3 19.4 15.9 76 2.6 N 15 26 8 14 1010.4 - 0.0
19/11:15pm 20.4 19.1 15.8 75 2.8 N 17 26 9 14 1010.7 - 0.0
19/11:00pm 20.5 19.2 15.7 74 2.9 NNE 17 30 9 16 1010.8 - 0.0
19/10:45pm 20.5 19.5 15.6 73 2.9 N 15 24 8 13 1011.0 - 0.0
19/10:30pm 20.5 19.1 15.5 73 3.0 N 17 28 9 15 1011.0 - 0.0
19/10:15pm 20.6 18.8 15.4 72 3.1 NNE 19 30 10 16 1011.0 - 0.0
19/10:00pm 20.6 19.5 15.4 72 3.1 NNE 15 26 8 14 1011.1 - 0.0
19/09:45pm 20.6 18.7 15.3 71 3.2 NNE 19 26 10 14 1011.2 - 0.0
19/09:30pm 20.6 20.2 15.3 71 3.2 NNE 11 20 6 11 1011.2 - 0.0
19/09:15pm 20.6 19.1 15.2 71 3.2 NNE 17 24 9 13 1011.1 - 0.0
19/09:00pm 20.6 18.7 15.1 70 3.3 NNE 19 28 10 15 1011.2 - 0.0
19/08:45pm 20.5 18.9 15.0 70 3.3 NNE 17 26 9 14 1011.2 - 0.0
19/08:30pm 20.5 19.2 14.9 70 3.3 NNE 15 22 8 12 1011.2 - 0.0
19/08:15pm 20.5 19.2 14.8 70 3.4 NNE 15 24 8 13 1011.1 - 0.0
19/08:00pm 20.5 19.2 14.8 70 3.4 NNE 15 32 8 17 1011.0 - 0.0
19/07:45pm 20.6 18.9 14.8 69 3.4 NE 17 24 9 13 1011.1 - 0.0
19/07:30pm 20.6 19.3 14.8 69 3.4 NE 15 24 8 13 1011.2 - 0.0
19/07:15pm 20.6 19.3 14.7 69 3.5 NE 15 24 8 13 1011.2 - 0.0
19/07:00pm 20.7 19.0 14.7 68 3.5 NE 17 26 9 14 1011.2 - 0.0
19/06:45pm 20.8 18.7 14.7 68 3.6 NE 19 26 10 14 1011.3 - 0.0
19/06:30pm 20.8 19.4 14.5 67 3.7 NE 15 24 8 13 1011.3 - 0.0
19/06:15pm 21.0 18.8 14.4 66 3.9 NE 19 26 10 14 1011.4 - 0.0
19/06:00pm 21.2 19.0 14.3 64 4.0 NE 19 26 10 14 1011.5 - 0.0
19/05:45pm 21.1 19.6 14.3 65 4.0 NE 15 24 8 13 1011.7 - 0.0
19/05:30pm 21.2 19.3 14.3 64 4.0 NE 17 24 9 13 1011.9 - 0.0
19/05:15pm 21.2 19.3 14.2 64 4.1 NE 17 26 9 14 1012.0 - 0.0
19/05:00pm 21.3 19.4 14.3 64 4.1 NE 17 26 9 14 1012.2 - 0.0
19/04:45pm 21.4 19.5 14.3 64 4.2 ENE 17 26 9 14 1012.4 - 0.0
19/04:30pm 21.3 19.1 14.3 64 4.1 NE 19 26 10 14 1012.6 - 0.0
19/04:15pm 21.5 20.1 14.6 65 4.1 NE 15 24 8 13 1012.8 - 0.0
19/04:00pm 21.3 19.1 14.4 64 4.1 ENE 19 30 10 16 1013.0 - 0.0
19/03:45pm 21.4 20.0 14.6 65 4.0 ENE 15 26 8 14 1013.2 - 0.0
19/03:30pm 20.9 19.2 14.6 67 3.7 ENE 17 24 9 13 1013.4 - 0.0
19/03:15pm 20.8 18.6 14.4 67 3.8 NE 19 26 10 14 1013.4 - 0.0
19/03:00pm 20.9 19.5 14.5 67 3.8 NE 15 26 8 14 1013.6 - 0.0
19/02:45pm 20.9 19.1 14.5 67 3.8 NE 17 24 9 13 1013.6 - 0.0
19/02:30pm 21.2 19.8 14.6 66 3.9 ENE 15 22 8 12 1013.7 - 0.0
19/02:15pm 20.9 19.1 14.5 67 3.8 NNE 17 26 9 14 1013.8 - 0.0
19/02:00pm 20.9 19.6 14.7 67 3.7 NE 15 24 8 13 1013.9 - 0.0
19/01:45pm 20.5 20.0 15.0 70 3.3 NE 11 17 6 9 1014.1 - 0.0
19/01:30pm 20.2 19.0 15.1 72 3.0 E 15 24 8 13 1014.1 - 0.0
19/01:15pm 20.1 19.7 15.3 74 2.9 E 11 20 6 11 1014.6 - 0.0
19/01:00pm 19.8 19.6 15.7 77 2.4 E 11 22 6 12 1014.6 - 0.0
19/12:45pm 19.4 19.2 15.8 80 2.2 ENE 11 20 6 11 1014.7 - 0.0
19/12:30pm 19.2 19.0 15.8 81 2.0 ENE 11 17 6 9 1014.8 - 0.0
19/12:15pm 19.6 18.7 15.8 79 2.3 ENE 15 20 8 11 1015.0 - 0.0
19/12:00pm 19.2 19.5 15.9 81 2.0 ENE 9 17 5 9 1015.0 - 0.0
19/11:45am 19.0 19.0 16.2 84 1.7 ENE 11 17 6 9 1015.1 - 0.0
19/11:30am 18.4 18.7 16.0 86 1.4 E 9 15 5 8 1015.4 - 0.0
19/11:15am 18.5 18.8 15.9 85 1.5 E 9 19 5 10 1015.4 - 0.0
19/11:00am 18.6 18.7 15.6 83 1.8 E 9 17 5 9 1015.4 - 0.0
19/10:45am 18.6 18.2 15.3 81 1.9 E 11 17 6 9 1015.3 - 0.0
19/10:30am 18.6 17.5 15.2 80 2.0 ESE 15 24 8 13 1015.4 - 0.0
19/10:15am 18.5 16.9 15.0 80 2.1 ESE 17 24 9 13 1015.3 - 0.0
19/10:00am 18.8 17.1 14.8 77 2.3 ESE 17 24 9 13 1015.4 - 0.0
19/09:45am 19.7 17.9 14.5 72 3.0 ESE 17 26 9 14 1015.3 - 0.0
19/09:30am 20.1 18.6 14.2 69 3.4 ESE 15 26 8 14 1015.2 - 0.0
19/09:15am 19.9 19.6 14.5 71 3.2 SE 9 15 5 8 1015.1 - 0.0
19/09:00am 19.6 19.8 14.7 73 2.9 SSE 7 11 4 6 1015.0 - 0.0
19/08:45am 19.4 19.8 14.7 74 2.8 S 6 7 3 4 1015.0 - 0.0
19/08:30am 19.2 19.5 14.5 74 2.7 SSW 6 7 3 4 1015.1 - 0.0
19/08:15am 19.0 19.1 14.4 74 2.7 SW 7 9 4 5 1015.0 - 0.0
19/08:00am 18.9 18.6 14.3 74 2.7 SW 9 11 5 6 1014.9 - 0.0
19/07:45am 18.8 18.4 14.2 74 2.7 SW 9 11 5 6 1014.8 - 0.0
19/07:30am 18.6 18.2 14.2 75 2.5 SW 9 11 5 6 1014.6 - 0.0
19/07:15am 18.5 18.1 14.1 75 2.5 SW 9 11 5 6 1014.4 - 0.0
19/07:00am 18.5 18.0 13.9 74 2.6 SW 9 11 5 6 1014.4 - 0.0
19/06:45am 18.5 18.0 13.7 73 2.8 SW 9 11 5 6 1014.3 - 0.0
19/06:30am 18.5 17.9 13.6 73 2.8 SW 9 11 5 6 1014.2 - 0.0
19/06:15am 18.6 18.4 13.5 72 2.9 SW 7 11 4 6 1014.2 - 0.0
19/06:00am 18.7 18.4 13.4 71 3.0 SW 7 9 4 5 1014.1 - 0.0
19/05:45am 19.1 18.9 13.5 70 3.2 SSW 7 11 4 6 1014.1 - 0.0
19/05:30am 19.2 19.0 13.5 69 3.3 S 7 11 4 6 1014.0 - 0.0
19/05:15am 19.2 18.9 13.3 68 3.4 SSW 7 11 4 6 1014.0 - 0.0
19/05:00am 19.2 18.9 13.2 68 3.4 S 7 11 4 6 1013.9 - 0.0
19/04:45am 19.2 18.8 13.1 68 3.5 S 7 11 4 6 1013.8 - 0.0
19/04:30am 19.3 19.1 12.9 66 3.6 S 6 11 3 6 1013.8 - 0.0
19/04:15am 19.3 18.8 12.8 66 3.7 SSE 7 11 4 6 1013.8 - 0.0
19/04:00am 19.3 18.5 12.8 66 3.7 SSE 9 15 5 8 1013.9 - 0.0
19/03:45am 19.3 18.5 12.8 66 3.7 SSE 9 15 5 8 1014.1 - 0.0
19/03:30am 19.3 18.1 12.9 66 3.6 SSE 11 19 6 10 1014.2 - 0.0
19/03:15am 19.4 18.2 12.9 66 3.7 SSE 11 19 6 10 1014.4 - 0.0
19/03:00am 19.4 17.8 12.9 66 3.7 SSE 13 26 7 14 1014.5 - 0.0
19/02:45am 19.3 17.8 13.1 67 3.5 SSE 13 24 7 13 1014.6 - 0.0
19/02:30am 19.3 17.8 13.2 68 3.5 SSE 13 20 7 11 1014.8 - 0.0
19/02:15am 19.2 17.8 13.3 68 3.4 SSE 13 26 7 14 1014.8 - 0.0
19/02:00am 19.2 17.8 13.4 69 3.3 SE 13 24 7 13 1014.9 - 0.0
19/01:45am 19.1 17.4 13.7 71 3.1 SSE 15 26 8 14 1015.0 - 0.0
19/01:30am 19.0 17.0 14.0 73 2.9 SSE 17 32 9 17 1015.2 - 0.0
19/01:15am 18.7 17.2 14.2 75 2.6 SE 15 24 8 13 1015.4 - 0.0
19/01:00am 18.5 17.6 14.8 79 2.2 SE 13 24 7 13 1015.6 - 0.0
19/12:45am 18.3 17.5 15.1 81 1.9 SE 13 24 7 13 1015.8 - 0.0
19/12:30am 18.0 16.9 15.4 85 1.5 SE 15 26 8 14 1015.9 - 0.0
19/12:15am 17.9 16.8 15.4 85 1.5 SE 15 26 8 14 1016.0 - 0.0
19/12:00am 18.2 16.4 15.5 84 1.6 SE 19 33 10 18 1016.1 - 0.0
 
Date/Time
EDT
Temp
°C
App
Temp
°C
Dew
Point
°C
Rel
Hum
%
Delta-T
°C
Wind Press
QNH
hPa
Press
MSL
hPa
Rain since
9am
mm
Dir  Spd
km/h
Gust
km/h
Spd
kts
Gust
kts
18/11:45pm 18.6 16.3 15.6 83 1.8 ESE 22 32 12 17 1015.9 - 0.0
18/11:30pm 19.1 17.8 15.7 80 2.0 SE 17 26 9 14 1015.9 - 0.0
18/11:15pm 19.0 18.1 15.8 82 1.9 SSE 15 24 8 13 1016.2 - 0.0
18/11:00pm 19.3 18.0 15.8 80 2.1 SE 17 26 9 14 1015.8 - 0.0
18/10:45pm 19.8 19.0 16.0 79 2.3 SE 15 24 8 13 1015.9 - 0.0
18/10:30pm 20.0 18.8 16.1 78 2.3 SE 17 26 9 14 1015.8 - 0.0
18/10:15pm 20.2 19.5 16.3 78 2.4 SE 15 28 8 15 1015.4 - 0.0
18/10:00pm 20.3 19.2 16.3 78 2.4 SE 17 26 9 14 1015.1 - 0.0
18/09:45pm 20.2 19.1 16.4 79 2.3 SSE 17 26 9 14 1014.7 - 0.0
18/09:30pm 20.3 19.2 16.4 78 2.4 SSE 17 30 9 16 1014.4 - 0.0
18/09:15pm 20.3 19.6 16.3 78 2.4 SE 15 26 8 14 1014.2 - 0.0
18/09:00pm 20.3 18.7 16.4 78 2.4 SSE 20 30 11 16 1014.0 - 0.0
18/08:45pm 20.4 18.4 16.5 78 2.4 SSE 22 35 12 19 1013.7 - 0.0
18/08:30pm 20.6 18.3 16.7 78 2.4 SSE 24 35 13 19 1013.3 - 0.0
18/08:15pm 20.7 18.9 16.9 79 2.3 SSE 22 35 12 19 1012.9 - 0.0
18/08:00pm 20.9 18.7 16.9 78 2.4 SSE 24 39 13 21 1012.5 - 0.0
18/07:45pm 20.8 18.6 17.0 79 2.3 SSE 24 41 13 22 1012.0 - 0.0
18/07:30pm 20.9 17.9 16.8 77 2.5 SE 28 41 15 22 1011.7 - 0.0
18/07:15pm 21.1 17.3 16.8 76 2.6 SSE 32 50 17 27 1011.4 - 0.0
18/07:00pm 21.3 18.8 17.1 77 2.6 SSE 26 48 14 26 1010.9 - 0.0
18/06:45pm 21.3 18.1 17.3 78 2.5 SSE 30 44 16 24 1010.3 - 0.0
18/06:30pm 21.5 17.4 17.4 77 2.5 SSE 35 56 19 30 1009.8 - 0.0
18/06:15pm 21.9 18.4 17.8 77 2.6 SSE 33 54 18 29 1009.3 - 0.0
18/06:00pm 22.2 18.8 18.2 78 2.5 SSE 33 57 18 31 1008.9 - 0.0
18/05:45pm 22.7 19.6 18.3 76 2.8 SE 32 59 17 32 1008.6 - 0.0
18/05:30pm 22.6 18.0 18.0 75 2.9 SE 39 59 21 32 1008.2 - 0.0
18/05:15pm 22.9 17.7 18.3 75 2.9 SSE 43 63 23 34 1007.9 - 0.0
18/05:00pm 23.3 17.6 18.5 74 3.0 SE 46 70 25 38 1007.7 - 0.0
18/04:45pm 23.7 17.7 18.7 73 3.2 SE 48 67 26 36 1007.5 - 0.0
18/04:30pm 24.7 19.5 18.9 70 3.7 SE 44 65 24 35 1007.1 - 0.0
18/04:15pm 25.0 19.6 19.2 70 3.7 SSE 46 67 25 36 1007.1 - 0.0
18/04:00pm 25.4 20.0 19.2 68 4.0 SSE 46 72 25 39 1006.7 - 0.0
18/03:45pm 26.6 23.3 19.2 64 4.8 SE 35 61 19 33 1006.5 - 0.0
18/03:30pm 26.4 22.0 18.4 61 5.1 SE 39 63 21 34 1006.3 - 0.0
18/03:15pm 26.9 22.4 18.2 59 5.6 SSE 39 59 21 32 1006.3 - 0.0
18/03:00pm 27.1 23.8 18.3 58 5.6 SE 33 54 18 29 1006.2 - 0.0
18/02:45pm 27.0 21.8 18.3 59 5.6 SSE 43 63 23 34 1006.1 - 0.0
18/02:30pm 27.0 21.8 18.3 59 5.6 SSE 43 59 23 32 1005.9 - 0.0
18/02:15pm 27.4 22.0 18.0 56 6.0 SSE 43 56 23 30 1005.7 - 0.0
18/02:00pm 28.9 26.1 18.3 52 6.8 SSE 30 50 16 27 1005.6 - 0.0
18/01:45pm 28.9 26.8 18.1 52 6.9 SE 26 43 14 23 1005.6 - 0.0
18/01:30pm 28.7 25.3 17.8 51 7.0 SE 32 44 17 24 1005.7 - 0.0
18/01:15pm 29.1 26.5 17.7 50 7.3 SSE 28 43 15 23 1005.5 - 0.0
18/01:00pm 30.1 28.3 17.9 48 7.8 SE 24 35 13 19 1005.5 - 0.0
18/12:45pm 31.4 30.3 17.8 44 8.8 SE 20 30 11 16 1005.4 - 0.0
18/12:30pm 31.3 30.8 17.9 44 8.6 SE 17 22 9 12 1005.2 - 0.0
18/12:15pm 30.8 29.8 17.6 45 8.5 SE 19 26 10 14 1005.2 - 0.0
18/12:00pm 30.5 28.8 17.2 44 8.5 SE 22 32 12 17 1005.3 - 0.0
18/11:45am 29.9 27.7 17.0 45 8.2 SE 24 32 13 17 1005.5 - 0.0
18/11:30am 29.9 28.7 17.5 47 7.9 SE 20 30 11 16 1005.5 - 0.0
18/11:15am 29.4 27.1 17.6 49 7.5 SE 26 35 14 19 1005.6 - 0.0
18/11:00am 29.8 27.3 18.0 49 7.6 SE 28 37 15 20 1005.6 - 0.0
18/10:45am 31.0 30.2 19.3 49 7.7 SE 22 35 12 19 1005.4 - 0.0
18/10:30am 32.0 32.2 19.4 47 8.3 SSE 17 32 9 17 1005.1 - 0.0
18/10:15am 36.9 36.3 16.7 30 13.0 W 15 30 8 16 1005.1 - 0.0
18/10:00am 37.2 34.4 16.4 29 13.4 W 26 44 14 24 1005.2 - 0.0
18/09:45am 36.8 33.6 16.4 30 13.1 W 28 44 15 24 1005.4 - 0.0
18/09:30am 36.4 33.0 16.7 31 12.7 W 30 48 16 26 1005.6 - 0.0
18/09:15am 35.8 33.9 17.6 34 11.8 W 24 44 13 24 1005.8 - 0.0
18/09:00am 34.5 34.6 19.1 40 10.2 W 17 30 9 16 1005.9 - 0.0
18/08:45am 33.3 34.6 20.2 46 8.8 WSW 13 20 7 11 1005.8 - 0.0
18/08:30am 31.9 34.7 20.8 51 7.5 SW 7 9 4 5 1005.8 - 0.0
18/08:15am 30.1 33.0 21.0 58 6.1 SW 7 7 4 4 1005.7 - 0.0
18/08:00am 29.9 32.8 20.7 57 6.1 W 6 11 3 6 1005.5 - 0.0
18/07:45am 30.3 32.8 20.2 54 6.7 WNW 7 13 4 7 1005.3 - 0.0
18/07:30am 28.5 31.0 20.2 60 5.5 WNW 7 11 4 6 1005.1 - 0.0
18/07:15am 26.7 29.5 19.7 65 4.6 NW 4 7 2 4 1005.0 - 0.0
18/07:00am 26.3 28.5 19.2 65 4.6 WNW 6 7 3 4 1004.9 - 0.0
18/06:45am 26.1 28.2 19.0 65 4.6 WNW 6 7 3 4 1004.7 - 0.0
18/06:30am 26.8 28.3 19.0 62 5.0 NW 9 15 5 8 1004.6 - 0.0
18/06:15am 28.3 29.0 18.8 56 6.1 NNW 13 17 7 9 1004.4 - 0.0
18/06:00am 28.5 28.9 18.9 56 6.2 NW 15 19 8 10 1004.1 - 0.0
18/05:45am 28.6 28.7 19.1 56 6.2 NW 17 20 9 11 1003.9 - 0.0
18/05:30am 28.7 29.2 19.2 56 6.2 NW 15 20 8 11 1003.9 - 0.0
18/05:15am 28.7 29.2 19.2 56 6.2 WNW 15 17 8 9 1003.9 - 0.0
18/05:00am 28.9 29.4 19.3 56 6.3 WNW 15 19 8 10 1003.9 - 0.0
18/04:45am 28.9 29.4 19.3 56 6.3 WNW 15 19 8 10 1003.8 - 0.0
18/04:30am 29.1 30.0 19.3 55 6.4 WNW 13 17 7 9 1003.7 - 0.0
18/04:15am 29.4 29.9 19.3 54 6.6 WNW 15 17 8 9 1003.7 - 0.0
18/04:00am 29.5 30.4 19.2 54 6.7 WNW 13 17 7 9 1003.9 - 0.0
18/03:45am 29.4 30.2 19.0 53 6.8 WNW 13 17 7 9 1003.9 - 0.0
18/03:30am 29.0 29.8 19.0 54 6.5 WNW 13 17 7 9 1003.9 - 0.0
18/03:15am 28.9 29.6 18.8 54 6.5 WNW 13 17 7 9 1004.1 - 0.0
18/03:00am 28.9 29.6 18.8 54 6.5 W 13 17 7 9 1004.3 - 0.0
18/02:45am 29.1 29.9 19.0 54 6.6 WNW 13 17 7 9 1004.4 - 0.0
18/02:30am 29.4 30.0 18.7 52 6.9 WNW 13 17 7 9 1004.6 - 0.0
18/02:15am 28.9 29.6 18.9 54 6.5 WNW 13 15 7 8 1004.8 - 0.0
18/02:00am 27.4 28.3 19.3 61 5.3 WNW 13 15 7 8 1004.9 - 0.0
18/01:45am 26.5 27.9 19.6 66 4.5 WNW 11 15 6 8 1005.0 - 0.0
18/01:30am 26.8 28.6 19.6 64 4.7 W 9 11 5 6 1005.2 - 0.0
18/01:15am 27.5 29.1 19.2 60 5.4 W 9 11 5 6 1005.5 - 0.0
18/01:00am 27.6 29.5 19.8 62 5.1 WNW 9 13 5 7 1005.7 - 0.0
18/12:45am 27.7 30.1 20.0 63 5.1 WNW 7 11 4 6 1005.8 - 0.0
18/12:30am 27.8 30.5 20.2 63 5.0 WNW 6 7 3 4 1006.0 - 0.0
18/12:15am 27.9 31.0 20.3 63 5.0 NW 4 6 2 3 1006.2 - 0.0
18/12:00am 28.1 31.2 20.3 62 5.2 N 4 6 2 3 1006.4 - 0.0
 
Date/Time
EDT
Temp
°C
App
Temp
°C
Dew
Point
°C
Rel
Hum
%
Delta-T
°C
Wind Press
QNH
hPa
Press
MSL
hPa
Rain since
9am
mm
Dir  Spd
km/h
Gust
km/h
Spd
kts
Gust
kts
17/11:45pm 28.5 31.2 20.2 60 5.5 NNE 6 7 3 4 1006.5 - 0.0
17/11:30pm 29.0 31.6 20.0 58 5.9 NE 6 9 3 5 1006.7 - 0.0
17/11:15pm 29.6 31.8 19.7 55 6.5 NE 7 13 4 7 1006.8 - 0.0
17/11:00pm 30.0 31.3 19.4 53 6.9 ENE 11 17 6 9 1006.8 - 0.0
17/10:45pm 30.5 31.0 19.2 51 7.4 ENE 15 19 8 10 1006.9 - 0.0
17/10:30pm 30.5 31.7 19.0 50 7.5 ENE 11 15 6 8 1007.2 - 0.0
17/10:15pm 30.9 31.8 18.5 47 8.0 ENE 11 17 6 9 1007.5 - 0.0
17/10:00pm 31.3 32.7 17.9 44 8.6 ENE 7 17 4 9 1007.9 - 0.0
17/09:45pm 31.7 31.5 17.5 42 9.1 NE 15 20 8 11 1007.9 - 0.0
17/09:30pm 31.3 31.3 18.2 45 8.5 NE 15 20 8 11 1008.0 - 0.0
17/09:15pm 30.5 31.7 19.8 52 7.1 E 13 19 7 10 1008.0 - 0.0
17/09:00pm 30.6 32.4 20.3 54 6.8 SSE 11 19 6 10 1008.1 - 0.0
17/08:45pm 31.6 32.0 19.1 47 8.2 S 15 30 8 16 1008.2 - 0.0

Other Formats:

Comma delimited format used in spreadsheet applications
http://www.bom.gov.au/fwo/IDN60801/IDN60801.95757.axf

JavaScript Object Notation format (JSON) in row-major order
http://www.bom.gov.au/fwo/IDN60801/IDN60801.95757.json